Accueil
METAR-TAF:

METAR-TAF

Aéroports :

Plate-forme pétrolière

P11-b, Pays-Bas

latitude: 52-21-36N, longitude: 3-20-30E, altitude: 24 m

Observation

Le bulletin a été fait il y a 11 minutes, à 07:25 UTC
Vent 28 kt de nord/nord-ouest, variant entre ouest/nord-ouest et nord/nord-est
Température 8°C
Humidité 71%
Pression 1040 hPa
Visibilité 10 km ou plus
Quelques nuages à une hauteur de 1900 ft
Nuages épars à une hauteur de 3100 ft

METAR: EHPG 050725Z AUTO 34028KT 300V020 9999 FEW019 SCT031 08/03 Q1040

Heure: 08:36 (07:36 UTC)


TAF: absent

Observations et prévisions météorologiques de plus de 4000 aéroports (messages METAR et TAF).

Les stations disponibles sont représentées par des disques jaunes et rouges sur la carte.

Passer la souris dessus pour voir le nom de la station.

Cliquer dessus pour voir les observations et prévisions météorologiques.

Pour changer de carte: cliquez sur les boutons verts avec une croix noire pour zoomer, sur le bouton vert avec un tiret pour effectuer un zoom arrière, ou sur les flèches vertes pour les cartes adjacentes.


METAR-TAF: